Historique des mesures à Cassis (13260), France
Quotidien Résumé Avril 7, 2020 Unités:  Métrique    US   Métrique/US
Quotidien Hebdomadaire Mensuel Annuel
  Maximum: Minimum: Moyenne:
Température: 32.8 °C 19.8 °C 26.3 °C
Point de rosée: 13 °C 5.9 °C 9.4 °C
Humidité: 42% 29% 35%
Vitesse du vent: 23.4km/h 0km/h 8km/h
Rafales: 45.7km/h - -
Vent- - SW
Pression: 1011.8 hPa 1005.7 hPa -
Précipitations: 0.0 mm    
Historical Graphs
 
 
Mesures pour : Avril 7, 2020
Heure Temperature Point de rosée Pression Vent Vitesse du vent Rafales Humidité Pluie (par heure)
00:11 23.3 °C 6 °C 1007.0 hPa WNW 12.2 km/h 37.4 km/h 33% 0.0 mm
01:11 22.4 °C 6.1 °C 1007.1 hPa NW 15.5 km/h 45.7 km/h 35% 0.0 mm
02:11 21.7 °C 6.7 °C 1006.1 hPa North 10.1 km/h 42.8 km/h 38% 0.0 mm
03:11 21.2 °C 5.9 °C 1006.9 hPa NE 2.2 km/h 16.6 km/h 37% 0.0 mm
04:11 20.5 °C 6.5 °C 1005.7 hPa NNW 23.4 km/h 43.6 km/h 40% 0.0 mm
05:11 20.1 °C 6.4 °C 1006.3 hPa NW 14.4 km/h 23.8 km/h 41% 0.0 mm
06:11 19.8 °C 6.5 °C 1006.1 hPa NNW 20.9 km/h 34.9 km/h 42% 0.0 mm
07:11 20.1 °C 6.4 °C 1006.5 hPa NNW 7.9 km/h 24.5 km/h 41% 0.0 mm
08:11 24.2 °C 6.8 °C 1006.6 hPa NNW 3.6 km/h 7.2 km/h 33% 0.0 mm
09:11 23.9 °C 6.6 °C 1007.4 hPa WNW 9.4 km/h 21.2 km/h 33% 0.0 mm
10:11 25.9 °C 7.9 °C 1007.9 hPa WNW 14 km/h 23.8 km/h 32% 0.0 mm
11:11 28.5 °C 9.7 °C 1008.4 hPa NW 4 km/h 14.8 km/h 31% 0.0 mm
12:11 29.4 °C 9.5 °C 1008.9 hPa WNW 14.8 km/h 26.3 km/h 29% 0.0 mm
13:11 30.3 °C 10.2 °C 1009.3 hPa WNW 11.9 km/h 22 km/h 29% 0.0 mm
14:11 32.1 °C 11.8 °C 1009.8 hPa ESE 6.1 km/h 7.2 km/h 29% 0.0 mm
15:11 32.8 °C 13 °C 1010.3 hPa SSE 4.7 km/h 14.4 km/h 30% 0.0 mm
16:11 32.2 °C 12.9 °C 1010.5 hPa SE 5 km/h 9 km/h 31% 0.0 mm
17:11 31.3 °C 13 °C 1010.8 hPa SE 5 km/h 7.9 km/h 33% 0.0 mm
18:11 30.8 °C 12.6 °C 1010.7 hPa SE 5 km/h 7.6 km/h 33% 0.0 mm
19:11 29.6 °C 12 °C 1010.8 hPa SE 2.9 km/h 6.1 km/h 34% 0.0 mm
20:11 28.3 °C 12.2 °C 1010.9 hPa Calm   2.2 km/h 37% 0.0 mm
21:11 27.1 °C 11.5 °C 1011.3 hPa Calm     38% 0.0 mm
22:11 27.5 °C 12.3 °C 1011.5 hPa Calm   11.2 km/h 39% 0.0 mm
23:11 27.5 °C 12.3 °C 1011.8 hPa Calm   11.2 km/h 39% 0.0 mm
Observations météo à CASSIS
WU-History script by Weather Underground - 2 mb